sensor_id;sensor_type;location;lat;lon;timestamp;P1;durP1;ratioP1;P2;durP2;ratioP2
21639;SDS011;10981;45.462;10.974;2022-07-19T00:00:16;5.55;;;4.95;;
21639;SDS011;10981;45.462;10.974;2022-07-19T00:02:45;5.55;;;5.05;;
21639;SDS011;10981;45.462;10.974;2022-07-19T00:05:32;8.07;;;4.82;;
21639;SDS011;10981;45.462;10.974;2022-07-19T00:08:00;9.40;;;5.88;;
21639;SDS011;10981;45.462;10.974;2022-07-19T00:10:28;6.15;;;4.88;;
21639;SDS011;10981;45.462;10.974;2022-07-19T00:12:57;6.05;;;5.13;;
21639;SDS011;10981;45.462;10.974;2022-07-19T00:15:25;6.20;;;4.95;;
21639;SDS011;10981;45.462;10.974;2022-07-19T00:18:12;5.30;;;4.70;;
21639;SDS011;10981;45.462;10.974;2022-07-19T00:20:41;7.28;;;5.57;;
21639;SDS011;10981;45.462;10.974;2022-07-19T00:23:11;6.88;;;5.28;;
21639;SDS011;10981;45.462;10.974;2022-07-19T00:25:39;6.90;;;5.53;;
21639;SDS011;10981;45.462;10.974;2022-07-19T00:28:07;8.07;;;5.70;;
21639;SDS011;10981;45.462;10.974;2022-07-19T00:30:36;6.43;;;5.45;;
21639;SDS011;10981;45.462;10.974;2022-07-19T00:33:04;6.25;;;5.35;;
21639;SDS011;10981;45.462;10.974;2022-07-19T00:35:36;8.45;;;5.53;;
21639;SDS011;10981;45.462;10.974;2022-07-19T00:38:05;11.13;;;6.20;;
21639;SDS011;10981;45.462;10.974;2022-07-19T00:40:35;7.30;;;5.72;;
21639;SDS011;10981;45.462;10.974;2022-07-19T00:43:04;6.93;;;6.05;;
21639;SDS011;10981;45.462;10.974;2022-07-19T00:45:32;8.13;;;5.63;;
21639;SDS011;10981;45.462;10.974;2022-07-19T00:48:01;9.32;;;5.57;;
21639;SDS011;10981;45.462;10.974;2022-07-19T00:50:29;12.38;;;6.00;;
21639;SDS011;10981;45.462;10.974;2022-07-19T00:52:59;10.57;;;5.93;;
21639;SDS011;10981;45.462;10.974;2022-07-19T00:55:30;13.00;;;6.22;;
21639;SDS011;10981;45.462;10.974;2022-07-19T00:58:00;13.73;;;6.30;;
21639;SDS011;10981;45.462;10.974;2022-07-19T01:00:31;8.73;;;5.30;;
21639;SDS011;10981;45.462;10.974;2022-07-19T01:03:01;8.20;;;5.95;;
21639;SDS011;10981;45.462;10.974;2022-07-19T01:05:29;13.93;;;6.10;;
21639;SDS011;10981;45.462;10.974;2022-07-19T01:07:57;10.38;;;5.72;;
21639;SDS011;10981;45.462;10.974;2022-07-19T01:10:26;6.82;;;5.50;;
21639;SDS011;10981;45.462;10.974;2022-07-19T01:12:54;7.05;;;5.28;;
21639;SDS011;10981;45.462;10.974;2022-07-19T01:15:24;8.00;;;6.43;;
21639;SDS011;10981;45.462;10.974;2022-07-19T01:17:53;8.93;;;5.80;;
21639;SDS011;10981;45.462;10.974;2022-07-19T01:20:22;6.45;;;5.85;;
21639;SDS011;10981;45.462;10.974;2022-07-19T01:22:56;8.02;;;5.95;;
21639;SDS011;10981;45.462;10.974;2022-07-19T01:25:26;6.28;;;5.63;;
21639;SDS011;10981;45.462;10.974;2022-07-19T01:27:58;8.25;;;4.90;;
21639;SDS011;10981;45.462;10.974;2022-07-19T01:30:27;7.35;;;4.97;;
21639;SDS011;10981;45.462;10.974;2022-07-19T01:32:56;10.88;;;5.90;;
21639;SDS011;10981;45.462;10.974;2022-07-19T01:35:25;10.80;;;6.32;;
21639;SDS011;10981;45.462;10.974;2022-07-19T01:37:53;6.63;;;5.75;;
21639;SDS011;10981;45.462;10.974;2022-07-19T01:40:22;9.88;;;6.80;;
21639;SDS011;10981;45.462;10.974;2022-07-19T01:42:51;7.65;;;6.28;;
21639;SDS011;10981;45.462;10.974;2022-07-19T01:45:19;6.68;;;5.80;;
21639;SDS011;10981;45.462;10.974;2022-07-19T01:47:48;9.50;;;6.85;;
21639;SDS011;10981;45.462;10.974;2022-07-19T01:50:17;8.60;;;6.85;;
21639;SDS011;10981;45.462;10.974;2022-07-19T01:52:46;7.93;;;6.32;;
21639;SDS011;10981;45.462;10.974;2022-07-19T01:55:17;6.60;;;6.00;;
21639;SDS011;10981;45.462;10.974;2022-07-19T01:57:48;6.40;;;5.50;;
21639;SDS011;10981;45.462;10.974;2022-07-19T02:00:16;8.15;;;5.80;;
21639;SDS011;10981;45.462;10.974;2022-07-19T02:02:45;8.18;;;6.18;;
21639;SDS011;10981;45.462;10.974;2022-07-19T02:05:13;10.13;;;6.45;;
21639;SDS011;10981;45.462;10.974;2022-07-19T02:07:45;10.43;;;5.70;;
21639;SDS011;10981;45.462;10.974;2022-07-19T02:10:15;7.90;;;6.10;;
21639;SDS011;10981;45.462;10.974;2022-07-19T02:12:44;10.73;;;6.53;;
21639;SDS011;10981;45.462;10.974;2022-07-19T02:15:13;9.82;;;6.28;;
21639;SDS011;10981;45.462;10.974;2022-07-19T02:17:42;6.93;;;6.25;;
21639;SDS011;10981;45.462;10.974;2022-07-19T02:20:11;7.85;;;6.47;;
21639;SDS011;10981;45.462;10.974;2022-07-19T02:22:40;8.45;;;5.97;;
21639;SDS011;10981;45.462;10.974;2022-07-19T02:25:08;7.53;;;6.25;;
21639;SDS011;10981;45.462;10.974;2022-07-19T02:27:37;6.38;;;5.40;;
21639;SDS011;10981;45.462;10.974;2022-07-19T02:30:05;10.75;;;5.95;;
21639;SDS011;10981;45.462;10.974;2022-07-19T02:32:34;9.38;;;6.50;;
21639;SDS011;10981;45.462;10.974;2022-07-19T02:35:02;7.80;;;5.78;;
21639;SDS011;10981;45.462;10.974;2022-07-19T02:37:32;7.28;;;5.55;;
21639;SDS011;10981;45.462;10.974;2022-07-19T02:40:01;8.85;;;5.60;;
21639;SDS011;10981;45.462;10.974;2022-07-19T02:42:30;9.02;;;5.70;;
21639;SDS011;10981;45.462;10.974;2022-07-19T02:44:58;12.18;;;6.03;;
21639;SDS011;10981;45.462;10.974;2022-07-19T02:47:27;7.63;;;5.65;;
21639;SDS011;10981;45.462;10.974;2022-07-19T02:49:55;8.38;;;5.65;;
21639;SDS011;10981;45.462;10.974;2022-07-19T02:52:23;7.00;;;5.90;;
21639;SDS011;10981;45.462;10.974;2022-07-19T02:54:51;7.07;;;5.30;;
21639;SDS011;10981;45.462;10.974;2022-07-19T02:57:20;6.80;;;5.50;;
21639;SDS011;10981;45.462;10.974;2022-07-19T02:59:49;8.25;;;5.90;;
21639;SDS011;10981;45.462;10.974;2022-07-19T03:02:17;10.75;;;5.72;;
21639;SDS011;10981;45.462;10.974;2022-07-19T03:04:46;6.57;;;5.65;;
21639;SDS011;10981;45.462;10.974;2022-07-19T03:07:14;8.02;;;5.80;;
21639;SDS011;10981;45.462;10.974;2022-07-19T03:09:42;6.35;;;5.75;;
21639;SDS011;10981;45.462;10.974;2022-07-19T03:12:10;5.88;;;5.28;;
21639;SDS011;10981;45.462;10.974;2022-07-19T03:14:39;8.38;;;5.63;;
21639;SDS011;10981;45.462;10.974;2022-07-19T03:17:07;6.90;;;5.35;;
21639;SDS011;10981;45.462;10.974;2022-07-19T03:19:35;7.07;;;5.55;;
21639;SDS011;10981;45.462;10.974;2022-07-19T03:22:04;7.25;;;5.80;;
21639;SDS011;10981;45.462;10.974;2022-07-19T03:24:32;7.28;;;5.43;;
21639;SDS011;10981;45.462;10.974;2022-07-19T03:27:01;7.05;;;6.30;;
21639;SDS011;10981;45.462;10.974;2022-07-19T03:29:30;8.27;;;6.32;;
21639;SDS011;10981;45.462;10.974;2022-07-19T03:31:58;7.72;;;6.50;;
21639;SDS011;10981;45.462;10.974;2022-07-19T03:34:27;8.88;;;6.38;;
21639;SDS011;10981;45.462;10.974;2022-07-19T03:36:58;7.20;;;6.25;;
21639;SDS011;10981;45.462;10.974;2022-07-19T03:39:26;6.75;;;6.10;;
21639;SDS011;10981;45.462;10.974;2022-07-19T03:41:54;10.70;;;5.97;;
21639;SDS011;10981;45.462;10.974;2022-07-19T03:44:26;6.00;;;5.22;;
21639;SDS011;10981;45.462;10.974;2022-07-19T03:46:55;7.47;;;5.38;;
21639;SDS011;10981;45.462;10.974;2022-07-19T03:49:23;9.70;;;5.78;;
21639;SDS011;10981;45.462;10.974;2022-07-19T03:51:51;9.90;;;5.57;;
21639;SDS011;10981;45.462;10.974;2022-07-19T03:54:20;10.20;;;5.95;;
21639;SDS011;10981;45.462;10.974;2022-07-19T03:56:48;6.72;;;5.55;;
21639;SDS011;10981;45.462;10.974;2022-07-19T03:59:19;6.03;;;5.38;;
21639;SDS011;10981;45.462;10.974;2022-07-19T04:01:50;5.53;;;4.85;;
21639;SDS011;10981;45.462;10.974;2022-07-19T04:04:18;7.35;;;5.82;;
21639;SDS011;10981;45.462;10.974;2022-07-19T04:06:46;7.70;;;6.25;;
21639;SDS011;10981;45.462;10.974;2022-07-19T04:09:15;8.63;;;4.93;;
21639;SDS011;10981;45.462;10.974;2022-07-19T04:11:43;8.27;;;5.43;;
21639;SDS011;10981;45.462;10.974;2022-07-19T04:14:11;7.32;;;5.38;;
21639;SDS011;10981;45.462;10.974;2022-07-19T04:16:40;7.05;;;5.07;;
21639;SDS011;10981;45.462;10.974;2022-07-19T04:19:11;7.97;;;5.80;;
21639;SDS011;10981;45.462;10.974;2022-07-19T04:21:40;6.22;;;5.63;;
21639;SDS011;10981;45.462;10.974;2022-07-19T04:24:08;10.07;;;6.00;;
21639;SDS011;10981;45.462;10.974;2022-07-19T04:26:37;9.20;;;5.28;;
21639;SDS011;10981;45.462;10.974;2022-07-19T04:29:05;7.38;;;5.30;;
21639;SDS011;10981;45.462;10.974;2022-07-19T04:31:34;10.75;;;6.70;;
21639;SDS011;10981;45.462;10.974;2022-07-19T04:34:03;14.77;;;6.03;;
21639;SDS011;10981;45.462;10.974;2022-07-19T04:36:31;12.25;;;6.30;;
21639;SDS011;10981;45.462;10.974;2022-07-19T04:38:59;13.57;;;6.25;;
21639;SDS011;10981;45.462;10.974;2022-07-19T04:41:27;14.85;;;7.20;;
21639;SDS011;10981;45.462;10.974;2022-07-19T04:43:56;8.75;;;6.65;;
21639;SDS011;10981;45.462;10.974;2022-07-19T04:46:24;10.43;;;6.10;;
21639;SDS011;10981;45.462;10.974;2022-07-19T04:48:52;8.93;;;5.82;;
21639;SDS011;10981;45.462;10.974;2022-07-19T04:51:20;6.43;;;5.82;;
21639;SDS011;10981;45.462;10.974;2022-07-19T04:53:49;9.25;;;5.88;;
21639;SDS011;10981;45.462;10.974;2022-07-19T04:56:17;7.18;;;5.65;;
21639;SDS011;10981;45.462;10.974;2022-07-19T04:58:46;12.07;;;6.57;;
21639;SDS011;10981;45.462;10.974;2022-07-19T05:01:15;7.03;;;5.10;;
21639;SDS011;10981;45.462;10.974;2022-07-19T05:03:44;12.65;;;6.18;;
21639;SDS011;10981;45.462;10.974;2022-07-19T05:06:12;11.10;;;5.40;;
21639;SDS011;10981;45.462;10.974;2022-07-19T05:08:41;7.80;;;5.60;;
21639;SDS011;10981;45.462;10.974;2022-07-19T05:11:09;10.02;;;5.53;;
21639;SDS011;10981;45.462;10.974;2022-07-19T05:13:37;8.02;;;6.10;;
21639;SDS011;10981;45.462;10.974;2022-07-19T05:16:06;6.70;;;5.35;;
21639;SDS011;10981;45.462;10.974;2022-07-19T05:18:34;9.40;;;5.38;;
21639;SDS011;10981;45.462;10.974;2022-07-19T05:21:02;6.13;;;5.40;;
21639;SDS011;10981;45.462;10.974;2022-07-19T05:23:31;8.57;;;6.00;;
21639;SDS011;10981;45.462;10.974;2022-07-19T05:26:00;6.47;;;5.22;;
21639;SDS011;10981;45.462;10.974;2022-07-19T05:28:28;6.72;;;5.60;;
21639;SDS011;10981;45.462;10.974;2022-07-19T05:31:02;6.05;;;5.03;;
21639;SDS011;10981;45.462;10.974;2022-07-19T05:33:32;6.90;;;5.63;;
21639;SDS011;10981;45.462;10.974;2022-07-19T05:36:00;8.15;;;5.70;;
21639;SDS011;10981;45.462;10.974;2022-07-19T05:38:28;10.15;;;5.40;;
21639;SDS011;10981;45.462;10.974;2022-07-19T05:41:01;8.55;;;6.35;;
21639;SDS011;10981;45.462;10.974;2022-07-19T05:43:29;8.82;;;6.05;;
21639;SDS011;10981;45.462;10.974;2022-07-19T05:45:58;10.95;;;6.20;;
21639;SDS011;10981;45.462;10.974;2022-07-19T05:48:26;9.07;;;6.00;;
21639;SDS011;10981;45.462;10.974;2022-07-19T05:50:56;10.75;;;6.45;;
21639;SDS011;10981;45.462;10.974;2022-07-19T05:53:26;9.68;;;5.97;;
21639;SDS011;10981;45.462;10.974;2022-07-19T05:55:55;7.45;;;5.57;;
21639;SDS011;10981;45.462;10.974;2022-07-19T05:58:23;9.98;;;6.53;;
21639;SDS011;10981;45.462;10.974;2022-07-19T06:00:57;7.75;;;5.90;;
21639;SDS011;10981;45.462;10.974;2022-07-19T06:03:52;10.82;;;6.93;;
21639;SDS011;10981;45.462;10.974;2022-07-19T06:06:26;10.93;;;6.45;;
21639;SDS011;10981;45.462;10.974;2022-07-19T06:08:59;6.68;;;6.00;;
21639;SDS011;10981;45.462;10.974;2022-07-19T06:11:28;16.55;;;7.07;;
21639;SDS011;10981;45.462;10.974;2022-07-19T06:13:56;9.98;;;6.25;;
21639;SDS011;10981;45.462;10.974;2022-07-19T06:16:25;9.77;;;6.15;;
21639;SDS011;10981;45.462;10.974;2022-07-19T06:18:53;6.63;;;5.78;;
21639;SDS011;10981;45.462;10.974;2022-07-19T06:21:22;9.85;;;6.20;;
21639;SDS011;10981;45.462;10.974;2022-07-19T06:23:50;8.00;;;5.80;;
21639;SDS011;10981;45.462;10.974;2022-07-19T06:26:21;8.48;;;6.35;;
21639;SDS011;10981;45.462;10.974;2022-07-19T06:28:50;10.13;;;6.00;;
21639;SDS011;10981;45.462;10.974;2022-07-19T06:31:18;10.43;;;6.38;;
21639;SDS011;10981;45.462;10.974;2022-07-19T06:33:48;9.80;;;6.65;;
21639;SDS011;10981;45.462;10.974;2022-07-19T06:36:17;8.88;;;6.72;;
21639;SDS011;10981;45.462;10.974;2022-07-19T06:38:47;8.77;;;5.57;;
21639;SDS011;10981;45.462;10.974;2022-07-19T06:41:16;8.25;;;5.63;;
21639;SDS011;10981;45.462;10.974;2022-07-19T06:43:44;8.45;;;6.18;;
21639;SDS011;10981;45.462;10.974;2022-07-19T06:46:13;10.15;;;5.78;;
21639;SDS011;10981;45.462;10.974;2022-07-19T06:48:42;9.65;;;6.00;;
21639;SDS011;10981;45.462;10.974;2022-07-19T06:51:10;9.07;;;5.65;;
21639;SDS011;10981;45.462;10.974;2022-07-19T06:53:42;7.22;;;5.18;;
21639;SDS011;10981;45.462;10.974;2022-07-19T06:56:10;8.38;;;5.30;;
21639;SDS011;10981;45.462;10.974;2022-07-19T06:58:38;14.30;;;5.25;;
21639;SDS011;10981;45.462;10.974;2022-07-19T07:01:08;4.43;;;4.00;;
21639;SDS011;10981;45.462;10.974;2022-07-19T07:03:37;4.75;;;3.97;;
21639;SDS011;10981;45.462;10.974;2022-07-19T07:06:06;5.10;;;3.55;;
21639;SDS011;10981;45.462;10.974;2022-07-19T07:08:34;4.63;;;3.72;;
21639;SDS011;10981;45.462;10.974;2022-07-19T07:11:02;10.15;;;3.53;;
21639;SDS011;10981;45.462;10.974;2022-07-19T07:13:31;4.68;;;2.85;;
21639;SDS011;10981;45.462;10.974;2022-07-19T07:16:01;4.40;;;2.85;;
21639;SDS011;10981;45.462;10.974;2022-07-19T07:18:32;5.50;;;3.20;;
21639;SDS011;10981;45.462;10.974;2022-07-19T07:21:00;5.00;;;3.33;;
21639;SDS011;10981;45.462;10.974;2022-07-19T07:23:28;4.20;;;2.75;;
21639;SDS011;10981;45.462;10.974;2022-07-19T07:25:57;5.18;;;3.10;;
21639;SDS011;10981;45.462;10.974;2022-07-19T07:28:26;4.55;;;2.38;;
21639;SDS011;10981;45.462;10.974;2022-07-19T07:30:54;4.40;;;3.20;;
21639;SDS011;10981;45.462;10.974;2022-07-19T07:33:22;3.65;;;2.80;;
21639;SDS011;10981;45.462;10.974;2022-07-19T07:35:51;3.65;;;2.00;;
21639;SDS011;10981;45.462;10.974;2022-07-19T07:38:19;3.67;;;2.28;;
21639;SDS011;10981;45.462;10.974;2022-07-19T07:40:47;4.00;;;2.60;;
21639;SDS011;10981;45.462;10.974;2022-07-19T07:43:20;4.07;;;2.50;;
21639;SDS011;10981;45.462;10.974;2022-07-19T07:45:48;4.03;;;2.55;;
21639;SDS011;10981;45.462;10.974;2022-07-19T07:48:16;6.10;;;2.40;;
21639;SDS011;10981;45.462;10.974;2022-07-19T07:50:45;4.82;;;3.60;;
21639;SDS011;10981;45.462;10.974;2022-07-19T07:53:13;3.88;;;2.40;;
21639;SDS011;10981;45.462;10.974;2022-07-19T07:55:42;6.75;;;2.70;;
21639;SDS011;10981;45.462;10.974;2022-07-19T07:58:11;4.22;;;2.45;;
21639;SDS011;10981;45.462;10.974;2022-07-19T08:00:40;3.47;;;2.47;;
21639;SDS011;10981;45.462;10.974;2022-07-19T08:03:08;7.35;;;3.00;;
21639;SDS011;10981;45.462;10.974;2022-07-19T08:05:37;2.30;;;2.10;;
21639;SDS011;10981;45.462;10.974;2022-07-19T08:08:06;2.75;;;1.98;;
21639;SDS011;10981;45.462;10.974;2022-07-19T08:10:35;3.15;;;2.15;;
21639;SDS011;10981;45.462;10.974;2022-07-19T08:13:03;3.28;;;2.28;;
21639;SDS011;10981;45.462;10.974;2022-07-19T08:15:37;4.35;;;2.53;;
21639;SDS011;10981;45.462;10.974;2022-07-19T08:18:05;5.05;;;2.50;;
21639;SDS011;10981;45.462;10.974;2022-07-19T08:20:34;4.65;;;2.80;;
21639;SDS011;10981;45.462;10.974;2022-07-19T08:23:02;4.57;;;2.60;;
21639;SDS011;10981;45.462;10.974;2022-07-19T08:25:30;8.57;;;2.90;;
21639;SDS011;10981;45.462;10.974;2022-07-19T08:28:01;4.10;;;2.90;;
21639;SDS011;10981;45.462;10.974;2022-07-19T08:30:30;9.95;;;2.47;;
21639;SDS011;10981;45.462;10.974;2022-07-19T08:33:19;6.18;;;3.05;;
21639;SDS011;10981;45.462;10.974;2022-07-19T08:35:47;8.18;;;2.65;;
21639;SDS011;10981;45.462;10.974;2022-07-19T08:38:22;6.30;;;3.30;;
21639;SDS011;10981;45.462;10.974;2022-07-19T08:40:50;6.70;;;3.03;;
21639;SDS011;10981;45.462;10.974;2022-07-19T08:43:20;4.72;;;3.03;;
21639;SDS011;10981;45.462;10.974;2022-07-19T08:45:52;5.93;;;3.03;;
21639;SDS011;10981;45.462;10.974;2022-07-19T08:48:21;5.88;;;2.53;;
21639;SDS011;10981;45.462;10.974;2022-07-19T08:50:50;5.22;;;3.00;;
21639;SDS011;10981;45.462;10.974;2022-07-19T08:53:19;4.10;;;2.42;;
21639;SDS011;10981;45.462;10.974;2022-07-19T08:55:48;5.88;;;2.65;;
21639;SDS011;10981;45.462;10.974;2022-07-19T08:58:18;5.88;;;2.42;;
21639;SDS011;10981;45.462;10.974;2022-07-19T09:00:46;5.78;;;2.75;;
21639;SDS011;10981;45.462;10.974;2022-07-19T09:03:14;3.85;;;2.50;;
21639;SDS011;10981;45.462;10.974;2022-07-19T09:05:42;2.97;;;2.47;;
21639;SDS011;10981;45.462;10.974;2022-07-19T09:08:12;5.38;;;2.80;;
21639;SDS011;10981;45.462;10.974;2022-07-19T09:10:45;1.98;;;1.88;;
21639;SDS011;10981;45.462;10.974;2022-07-19T09:13:33;9.40;;;2.63;;
21639;SDS011;10981;45.462;10.974;2022-07-19T09:16:02;5.38;;;2.42;;
21639;SDS011;10981;45.462;10.974;2022-07-19T09:18:32;3.72;;;2.88;;
21639;SDS011;10981;45.462;10.974;2022-07-19T09:23:33;6.13;;;2.80;;
21639;SDS011;10981;45.462;10.974;2022-07-19T09:26:03;6.22;;;2.70;;
21639;SDS011;10981;45.462;10.974;2022-07-19T09:28:32;6.63;;;2.72;;
21639;SDS011;10981;45.462;10.974;2022-07-19T09:31:02;3.58;;;2.60;;
21639;SDS011;10981;45.462;10.974;2022-07-19T09:33:32;8.07;;;2.92;;
21639;SDS011;10981;45.462;10.974;2022-07-19T09:36:02;3.40;;;2.75;;
21639;SDS011;10981;45.462;10.974;2022-07-19T09:38:38;8.65;;;2.75;;
21639;SDS011;10981;45.462;10.974;2022-07-19T09:41:13;4.45;;;2.53;;
21639;SDS011;10981;45.462;10.974;2022-07-19T09:46:36;7.28;;;2.80;;
21639;SDS011;10981;45.462;10.974;2022-07-19T09:51:44;3.67;;;2.20;;
21639;SDS011;10981;45.462;10.974;2022-07-19T09:54:14;3.50;;;2.60;;
21639;SDS011;10981;45.462;10.974;2022-07-19T09:56:44;6.50;;;2.67;;
21639;SDS011;10981;45.462;10.974;2022-07-19T09:59:13;6.22;;;2.53;;
21639;SDS011;10981;45.462;10.974;2022-07-19T10:01:42;4.47;;;2.55;;
21639;SDS011;10981;45.462;10.974;2022-07-19T10:04:15;3.03;;;2.83;;
21639;SDS011;10981;45.462;10.974;2022-07-19T10:06:46;6.45;;;2.45;;
21639;SDS011;10981;45.462;10.974;2022-07-19T10:09:16;4.18;;;3.15;;
21639;SDS011;10981;45.462;10.974;2022-07-19T10:11:54;2.60;;;2.40;;
21639;SDS011;10981;45.462;10.974;2022-07-19T10:14:23;2.83;;;2.55;;
21639;SDS011;10981;45.462;10.974;2022-07-19T10:17:01;3.72;;;2.78;;
21639;SDS011;10981;45.462;10.974;2022-07-19T10:19:49;6.07;;;2.90;;
21639;SDS011;10981;45.462;10.974;2022-07-19T10:22:19;3.70;;;2.45;;
21639;SDS011;10981;45.462;10.974;2022-07-19T10:32:29;4.28;;;2.28;;
21639;SDS011;10981;45.462;10.974;2022-07-19T10:35:32;3.38;;;2.75;;
21639;SDS011;10981;45.462;10.974;2022-07-19T10:37:54;4.70;;;2.80;;
21639;SDS011;10981;45.462;10.974;2022-07-19T10:40:35;4.53;;;2.63;;
21639;SDS011;10981;45.462;10.974;2022-07-19T10:43:04;6.40;;;2.38;;
21639;SDS011;10981;45.462;10.974;2022-07-19T10:45:33;4.60;;;2.42;;
21639;SDS011;10981;45.462;10.974;2022-07-19T10:48:04;2.58;;;2.38;;
21639;SDS011;10981;45.462;10.974;2022-07-19T10:50:44;4.30;;;2.72;;
21639;SDS011;10981;45.462;10.974;2022-07-19T10:58:46;7.35;;;2.80;;
21639;SDS011;10981;45.462;10.974;2022-07-19T11:01:19;3.58;;;2.70;;
21639;SDS011;10981;45.462;10.974;2022-07-19T11:03:49;3.80;;;2.47;;
21639;SDS011;10981;45.462;10.974;2022-07-19T11:06:20;3.22;;;2.53;;
21639;SDS011;10981;45.462;10.974;2022-07-19T11:08:53;6.47;;;3.05;;
21639;SDS011;10981;45.462;10.974;2022-07-19T11:11:24;7.20;;;3.10;;
21639;SDS011;10981;45.462;10.974;2022-07-19T11:13:57;4.50;;;3.00;;
21639;SDS011;10981;45.462;10.974;2022-07-19T11:16:27;2.83;;;2.58;;
21639;SDS011;10981;45.462;10.974;2022-07-19T11:19:05;4.35;;;3.08;;
21639;SDS011;10981;45.462;10.974;2022-07-19T11:21:35;6.97;;;3.08;;
21639;SDS011;10981;45.462;10.974;2022-07-19T11:24:04;2.80;;;2.50;;
21639;SDS011;10981;45.462;10.974;2022-07-19T11:26:36;4.65;;;2.92;;
21639;SDS011;10981;45.462;10.974;2022-07-19T11:29:13;7.13;;;2.72;;
21639;SDS011;10981;45.462;10.974;2022-07-19T11:31:47;3.20;;;2.85;;
21639;SDS011;10981;45.462;10.974;2022-07-19T11:34:16;5.78;;;2.55;;
21639;SDS011;10981;45.462;10.974;2022-07-19T11:36:44;2.50;;;2.35;;
21639;SDS011;10981;45.462;10.974;2022-07-19T11:39:23;6.90;;;2.63;;
21639;SDS011;10981;45.462;10.974;2022-07-19T11:41:51;4.85;;;2.70;;
21639;SDS011;10981;45.462;10.974;2022-07-19T11:44:19;5.65;;;2.80;;
21639;SDS011;10981;45.462;10.974;2022-07-19T11:46:47;7.32;;;3.35;;
21639;SDS011;10981;45.462;10.974;2022-07-19T11:49:23;5.10;;;2.78;;
21639;SDS011;10981;45.462;10.974;2022-07-19T11:52:00;5.40;;;2.88;;
21639;SDS011;10981;45.462;10.974;2022-07-19T11:54:28;3.45;;;2.67;;
21639;SDS011;10981;45.462;10.974;2022-07-19T11:56:56;3.08;;;2.80;;
21639;SDS011;10981;45.462;10.974;2022-07-19T11:59:24;3.28;;;2.97;;
21639;SDS011;10981;45.462;10.974;2022-07-19T12:01:54;5.13;;;2.58;;
21639;SDS011;10981;45.462;10.974;2022-07-19T12:04:24;3.47;;;2.72;;
21639;SDS011;10981;45.462;10.974;2022-07-19T12:06:53;4.95;;;3.38;;
21639;SDS011;10981;45.462;10.974;2022-07-19T12:09:26;3.70;;;2.60;;
21639;SDS011;10981;45.462;10.974;2022-07-19T12:11:56;4.25;;;2.78;;
21639;SDS011;10981;45.462;10.974;2022-07-19T12:17:09;6.22;;;3.00;;
21639;SDS011;10981;45.462;10.974;2022-07-19T12:19:47;4.13;;;3.03;;
21639;SDS011;10981;45.462;10.974;2022-07-19T12:22:53;7.05;;;2.60;;
21639;SDS011;10981;45.462;10.974;2022-07-19T12:25:37;5.13;;;2.80;;
21639;SDS011;10981;45.462;10.974;2022-07-19T12:28:06;4.35;;;2.83;;
21639;SDS011;10981;45.462;10.974;2022-07-19T12:30:35;5.03;;;2.83;;
21639;SDS011;10981;45.462;10.974;2022-07-19T12:33:08;5.78;;;2.70;;
21639;SDS011;10981;45.462;10.974;2022-07-19T12:35:46;6.63;;;2.67;;
21639;SDS011;10981;45.462;10.974;2022-07-19T12:38:15;5.90;;;2.72;;
21639;SDS011;10981;45.462;10.974;2022-07-19T12:40:43;5.80;;;3.08;;
21639;SDS011;10981;45.462;10.974;2022-07-19T12:43:12;7.18;;;2.60;;
21639;SDS011;10981;45.462;10.974;2022-07-19T12:45:44;9.52;;;3.10;;
21639;SDS011;10981;45.462;10.974;2022-07-19T12:48:15;3.70;;;2.70;;
21639;SDS011;10981;45.462;10.974;2022-07-19T12:50:45;3.85;;;2.80;;
21639;SDS011;10981;45.462;10.974;2022-07-19T12:53:18;2.75;;;2.55;;
21639;SDS011;10981;45.462;10.974;2022-07-19T12:55:48;6.85;;;2.70;;
21639;SDS011;10981;45.462;10.974;2022-07-19T12:58:16;4.47;;;2.63;;
21639;SDS011;10981;45.462;10.974;2022-07-19T13:01:05;4.55;;;3.97;;
21639;SDS011;10981;45.462;10.974;2022-07-19T13:03:35;6.00;;;3.00;;
21639;SDS011;10981;45.462;10.974;2022-07-19T13:06:06;2.80;;;2.60;;
21639;SDS011;10981;45.462;10.974;2022-07-19T13:08:35;7.63;;;2.63;;
21639;SDS011;10981;45.462;10.974;2022-07-19T13:11:03;5.72;;;3.20;;
21639;SDS011;10981;45.462;10.974;2022-07-19T13:13:31;4.80;;;2.72;;
21639;SDS011;10981;45.462;10.974;2022-07-19T13:16:02;4.03;;;2.60;;
21639;SDS011;10981;45.462;10.974;2022-07-19T13:18:30;6.47;;;2.85;;
21639;SDS011;10981;45.462;10.974;2022-07-19T13:20:58;3.08;;;2.70;;
21639;SDS011;10981;45.462;10.974;2022-07-19T13:23:27;5.60;;;2.90;;
21639;SDS011;10981;45.462;10.974;2022-07-19T13:25:56;6.95;;;2.65;;
21639;SDS011;10981;45.462;10.974;2022-07-19T13:28:27;2.95;;;2.65;;
21639;SDS011;10981;45.462;10.974;2022-07-19T13:30:56;3.40;;;2.70;;
21639;SDS011;10981;45.462;10.974;2022-07-19T13:33:24;7.68;;;2.75;;
21639;SDS011;10981;45.462;10.974;2022-07-19T13:35:55;7.00;;;2.63;;
21639;SDS011;10981;45.462;10.974;2022-07-19T13:38:26;3.97;;;2.05;;
21639;SDS011;10981;45.462;10.974;2022-07-19T13:40:54;2.90;;;2.58;;
21639;SDS011;10981;45.462;10.974;2022-07-19T13:43:23;4.22;;;2.65;;
21639;SDS011;10981;45.462;10.974;2022-07-19T13:45:51;3.30;;;2.83;;
21639;SDS011;10981;45.462;10.974;2022-07-19T13:48:20;3.15;;;2.47;;
21639;SDS011;10981;45.462;10.974;2022-07-19T13:50:48;3.60;;;2.60;;
21639;SDS011;10981;45.462;10.974;2022-07-19T13:53:16;4.55;;;2.90;;
21639;SDS011;10981;45.462;10.974;2022-07-19T13:55:45;3.15;;;2.85;;
21639;SDS011;10981;45.462;10.974;2022-07-19T13:58:13;3.55;;;2.72;;
21639;SDS011;10981;45.462;10.974;2022-07-19T14:00:42;5.40;;;2.92;;
21639;SDS011;10981;45.462;10.974;2022-07-19T14:03:14;5.25;;;2.88;;
21639;SDS011;10981;45.462;10.974;2022-07-19T14:05:44;5.35;;;3.22;;
21639;SDS011;10981;45.462;10.974;2022-07-19T14:08:13;6.75;;;3.20;;
21639;SDS011;10981;45.462;10.974;2022-07-19T14:10:42;4.30;;;2.97;;
21639;SDS011;10981;45.462;10.974;2022-07-19T14:13:11;5.82;;;2.90;;
21639;SDS011;10981;45.462;10.974;2022-07-19T14:16:03;4.78;;;3.00;;
21639;SDS011;10981;45.462;10.974;2022-07-19T14:18:31;4.65;;;3.67;;
21639;SDS011;10981;45.462;10.974;2022-07-19T14:21:00;3.78;;;2.65;;
21639;SDS011;10981;45.462;10.974;2022-07-19T14:23:29;3.13;;;2.83;;
21639;SDS011;10981;45.462;10.974;2022-07-19T14:26:00;3.47;;;2.90;;
21639;SDS011;10981;45.462;10.974;2022-07-19T14:28:28;6.72;;;3.05;;
21639;SDS011;10981;45.462;10.974;2022-07-19T14:30:57;4.22;;;3.30;;
21639;SDS011;10981;45.462;10.974;2022-07-19T14:33:25;3.42;;;3.13;;
21639;SDS011;10981;45.462;10.974;2022-07-19T14:35:54;3.63;;;3.30;;
21639;SDS011;10981;45.462;10.974;2022-07-19T14:38:22;3.13;;;2.63;;
21639;SDS011;10981;45.462;10.974;2022-07-19T14:40:50;5.78;;;3.13;;
21639;SDS011;10981;45.462;10.974;2022-07-19T14:43:22;3.75;;;3.15;;
21639;SDS011;10981;45.462;10.974;2022-07-19T14:45:50;3.88;;;2.72;;
21639;SDS011;10981;45.462;10.974;2022-07-19T14:48:19;3.67;;;3.38;;
21639;SDS011;10981;45.462;10.974;2022-07-19T14:50:47;4.30;;;2.92;;
21639;SDS011;10981;45.462;10.974;2022-07-19T14:53:15;3.80;;;2.75;;
21639;SDS011;10981;45.462;10.974;2022-07-19T14:55:43;8.27;;;3.25;;
21639;SDS011;10981;45.462;10.974;2022-07-19T14:58:12;6.78;;;2.70;;
21639;SDS011;10981;45.462;10.974;2022-07-19T15:00:40;4.40;;;2.83;;
21639;SDS011;10981;45.462;10.974;2022-07-19T15:03:09;8.00;;;3.22;;
21639;SDS011;10981;45.462;10.974;2022-07-19T15:05:38;4.65;;;2.50;;
21639;SDS011;10981;45.462;10.974;2022-07-19T15:08:06;6.07;;;3.13;;
21639;SDS011;10981;45.462;10.974;2022-07-19T15:10:34;4.07;;;3.13;;
21639;SDS011;10981;45.462;10.974;2022-07-19T15:13:03;3.72;;;3.13;;